createdAt,value
2023-03-17T00:01:22.715Z,100.00
2023-03-17T00:03:50.617Z,100.00
2023-03-17T00:06:28.622Z,100.00
2023-03-17T00:08:56.125Z,100.00
2023-03-17T00:11:23.244Z,100.00
2023-03-17T00:13:50.231Z,100.00
2023-03-17T00:16:19.445Z,100.00
2023-03-17T00:18:46.608Z,100.00
2023-03-17T00:21:14.779Z,100.00
2023-03-17T00:23:42.588Z,100.00
2023-03-17T00:26:10.107Z,100.00
2023-03-17T00:28:37.731Z,100.00
2023-03-17T00:31:13.490Z,100.00
2023-03-17T00:33:40.875Z,100.00
2023-03-17T00:36:11.109Z,100.00
2023-03-17T00:38:38.872Z,100.00
2023-03-17T00:41:06.339Z,100.00
2023-03-17T00:43:33.121Z,100.00
2023-03-17T00:45:59.930Z,100.00
2023-03-17T00:48:27.598Z,100.00
2023-03-17T00:50:54.640Z,100.00
2023-03-17T00:53:22.240Z,100.00
2023-03-17T00:55:49.105Z,100.00
2023-03-17T00:58:32.732Z,100.00
2023-03-17T01:00:59.958Z,100.00
2023-03-17T01:03:27.032Z,100.00
2023-03-17T01:05:54.389Z,100.00
2023-03-17T01:08:21.580Z,100.00
2023-03-17T01:10:48.524Z,100.00
2023-03-17T01:13:16.724Z,100.00
2023-03-17T01:15:45.742Z,100.00
2023-03-17T01:18:13.957Z,100.00
2023-03-17T01:20:40.959Z,100.00
2023-03-17T01:23:08.419Z,100.00
2023-03-17T01:25:35.636Z,100.00
2023-03-17T01:28:02.559Z,100.00
2023-03-17T01:30:39.813Z,100.00
2023-03-17T01:33:09.126Z,100.00
2023-03-17T01:35:37.017Z,100.00
2023-03-17T01:38:05.067Z,100.00
2023-03-17T01:40:33.911Z,100.00
2023-03-17T01:43:06.788Z,100.00
2023-03-17T01:46:11.913Z,100.00
2023-03-17T01:48:47.368Z,100.00
2023-03-17T01:51:17.677Z,100.00
2023-03-17T01:53:45.360Z,100.00
2023-03-17T01:56:12.561Z,100.00
2023-03-17T01:58:39.773Z,100.00
2023-03-17T02:01:07.695Z,100.00
2023-03-17T02:03:34.576Z,99.64
2023-03-17T02:06:01.600Z,98.85
2023-03-17T02:08:28.366Z,98.56
2023-03-17T02:10:55.126Z,98.29
2023-03-17T02:13:22.079Z,97.96
2023-03-17T02:15:50.538Z,97.78
2023-03-17T02:18:19.138Z,97.75
2023-03-17T02:20:48.864Z,97.32
2023-03-17T02:23:17.405Z,97.47
2023-03-17T02:25:45.340Z,97.56
2023-03-17T02:28:32.340Z,97.21
2023-03-17T02:30:59.085Z,97.20
2023-03-17T02:33:26.004Z,97.04
2023-03-17T02:35:53.145Z,97.03
2023-03-17T02:38:19.936Z,96.85
2023-03-17T02:40:47.204Z,97.03
2023-03-17T02:43:14.297Z,96.98
2023-03-17T02:45:41.917Z,97.16
2023-03-17T02:48:08.742Z,97.47
2023-03-17T02:50:35.559Z,97.81
2023-03-17T02:53:02.314Z,97.83
2023-03-17T02:55:29.087Z,97.98
2023-03-17T02:57:55.927Z,98.40
2023-03-17T03:00:22.840Z,98.29
2023-03-17T03:02:49.581Z,98.33
2023-03-17T03:05:16.652Z,98.54
2023-03-17T03:07:43.508Z,98.57
2023-03-17T03:10:10.858Z,98.77
2023-03-17T03:12:37.797Z,98.82
2023-03-17T03:15:05.589Z,98.94
2023-03-17T03:17:32.347Z,99.12
2023-03-17T03:19:59.397Z,99.13
2023-03-17T03:22:26.186Z,99.40
2023-03-17T03:24:52.973Z,99.34
2023-03-17T03:27:19.726Z,99.45
2023-03-17T03:29:46.567Z,99.49
2023-03-17T03:32:13.470Z,99.39
2023-03-17T03:34:40.252Z,99.30
2023-03-17T03:37:08.451Z,99.15
2023-03-17T03:39:35.764Z,99.13
2023-03-17T03:42:02.490Z,98.92
2023-03-17T03:44:29.383Z,99.13
2023-03-17T03:46:57.240Z,99.32
2023-03-17T03:49:24.552Z,99.29
2023-03-17T03:51:51.558Z,98.99
2023-03-17T03:54:18.389Z,98.95
2023-03-17T03:56:45.420Z,99.33
2023-03-17T03:59:12.275Z,98.99
2023-03-17T04:01:40.126Z,99.19
2023-03-17T04:04:07.013Z,99.41
2023-03-17T04:06:34.047Z,99.62
2023-03-17T04:09:00.800Z,99.84
2023-03-17T04:11:27.628Z,100.00
2023-03-17T04:13:54.476Z,100.00
2023-03-17T04:16:21.390Z,100.00
2023-03-17T04:18:48.168Z,100.00
2023-03-17T04:21:18.628Z,100.00
2023-03-17T04:23:46.139Z,100.00
2023-03-17T04:26:13.750Z,100.00
2023-03-17T04:28:40.762Z,100.00
2023-03-17T04:31:09.161Z,100.00
2023-03-17T04:33:36.995Z,100.00
2023-03-17T04:36:04.360Z,100.00
2023-03-17T04:38:31.128Z,100.00
2023-03-17T04:40:57.865Z,99.94
2023-03-17T04:43:24.795Z,100.00
2023-03-17T04:45:52.169Z,99.89
2023-03-17T04:48:18.961Z,99.64
2023-03-17T04:50:48.020Z,99.84
2023-03-17T04:53:14.813Z,99.75
2023-03-17T04:55:42.192Z,98.98
2023-03-17T04:58:11.783Z,98.17
2023-03-17T05:00:41.317Z,97.06
2023-03-17T05:03:23.924Z,96.14
2023-03-17T05:05:53.292Z,95.88
2023-03-17T05:08:20.263Z,95.60
2023-03-17T05:10:47.015Z,95.70
2023-03-17T05:13:13.926Z,95.95
2023-03-17T05:15:40.799Z,95.94
2023-03-17T05:18:08.376Z,96.16
2023-03-17T05:20:35.217Z,96.39
2023-03-17T05:23:01.938Z,96.52
2023-03-17T05:25:28.784Z,96.86
2023-03-17T05:27:56.650Z,97.26
2023-03-17T05:30:23.359Z,97.74
2023-03-17T05:32:50.159Z,98.08
2023-03-17T05:35:17.640Z,98.16
2023-03-17T05:37:44.904Z,98.32
2023-03-17T05:40:12.526Z,98.60
2023-03-17T05:42:39.443Z,98.91
2023-03-17T05:45:08.140Z,98.87
2023-03-17T05:47:35.368Z,99.13
2023-03-17T05:50:02.408Z,99.11
2023-03-17T05:52:29.187Z,99.07
2023-03-17T05:54:55.994Z,98.82
2023-03-17T05:57:22.840Z,98.69
2023-03-17T05:59:50.896Z,98.50
2023-03-17T06:02:17.816Z,98.11
2023-03-17T06:04:44.591Z,97.95
2023-03-17T06:07:12.180Z,98.14
2023-03-17T06:09:38.889Z,98.01
2023-03-17T06:12:06.969Z,98.21
2023-03-17T06:14:33.838Z,98.45
2023-03-17T06:17:00.571Z,98.56
2023-03-17T06:19:28.450Z,98.76
2023-03-17T06:21:55.164Z,98.74
2023-03-17T06:24:21.997Z,99.01
2023-03-17T06:26:48.926Z,98.92
2023-03-17T06:29:16.049Z,99.08
2023-03-17T06:31:43.385Z,98.73
2023-03-17T06:34:10.111Z,98.96
2023-03-17T06:36:39.309Z,99.04
2023-03-17T06:39:06.326Z,98.84
2023-03-17T06:41:33.563Z,98.96
2023-03-17T06:44:00.365Z,98.63
2023-03-17T06:46:27.277Z,98.16
2023-03-17T06:48:54.197Z,97.99
2023-03-17T06:51:21.132Z,98.20
2023-03-17T06:53:47.851Z,97.98
2023-03-17T06:56:28.869Z,98.22
2023-03-17T06:58:56.578Z,98.29
2023-03-17T07:01:23.644Z,98.42
2023-03-17T07:03:50.937Z,98.73
2023-03-17T07:06:17.934Z,98.47
2023-03-17T07:08:44.816Z,98.58
2023-03-17T07:11:11.715Z,98.68
2023-03-17T07:13:39.409Z,98.70
2023-03-17T07:16:07.149Z,98.80
2023-03-17T07:18:34.480Z,99.00
2023-03-17T07:21:04.609Z,98.96
2023-03-17T07:23:31.541Z,98.98
2023-03-17T07:25:58.404Z,99.23
2023-03-17T07:28:25.379Z,99.61
2023-03-17T07:30:52.574Z,99.69
2023-03-17T07:33:22.770Z,100.00
2023-03-17T07:35:49.895Z,100.00
2023-03-17T07:38:17.284Z,100.00
2023-03-17T07:40:45.848Z,99.79
2023-03-17T07:43:12.830Z,99.43
2023-03-17T07:45:39.667Z,99.04
2023-03-17T07:48:06.947Z,98.77
2023-03-17T07:50:34.411Z,98.92
2023-03-17T07:53:01.673Z,99.61
2023-03-17T07:55:29.860Z,100.00
2023-03-17T07:57:57.848Z,100.00
2023-03-17T08:00:24.851Z,100.00
2023-03-17T08:03:06.851Z,100.00
2023-03-17T08:05:36.270Z,100.00
2023-03-17T08:08:03.091Z,100.00
2023-03-17T08:10:30.255Z,100.00
2023-03-17T08:12:57.363Z,99.99
2023-03-17T08:15:24.111Z,99.81
2023-03-17T08:17:51.783Z,100.00
2023-03-17T08:20:19.460Z,100.00
2023-03-17T08:22:46.351Z,100.00
2023-03-17T08:25:13.186Z,100.00
2023-03-17T08:27:40.126Z,100.00
2023-03-17T08:30:07.955Z,100.00
2023-03-17T08:32:34.836Z,100.00
2023-03-17T08:35:01.797Z,100.00
2023-03-17T08:37:28.659Z,100.00
2023-03-17T08:39:55.591Z,100.00
2023-03-17T08:42:22.652Z,100.00
2023-03-17T08:44:49.931Z,100.00
2023-03-17T08:47:16.659Z,100.00
2023-03-17T08:49:43.931Z,100.00
2023-03-17T08:52:11.254Z,100.00
2023-03-17T08:54:38.117Z,100.00
2023-03-17T08:57:04.970Z,100.00
2023-03-17T08:59:31.782Z,100.00
2023-03-17T09:01:58.532Z,100.00
2023-03-17T09:04:26.292Z,100.00
2023-03-17T09:07:03.176Z,100.00
2023-03-17T09:09:31.386Z,100.00
2023-03-17T09:11:58.443Z,100.00
2023-03-17T09:14:25.287Z,100.00
2023-03-17T09:16:52.719Z,100.00
2023-03-17T09:19:19.620Z,100.00
2023-03-17T09:21:46.718Z,100.00
2023-03-17T09:24:13.887Z,100.00
2023-03-17T09:26:40.708Z,100.00
2023-03-17T09:29:07.614Z,100.00
2023-03-17T09:31:36.450Z,100.00
2023-03-17T09:34:05.200Z,100.00
2023-03-17T09:36:33.357Z,100.00
2023-03-17T09:39:00.762Z,100.00
2023-03-17T09:41:53.718Z,100.00
2023-03-17T09:44:36.120Z,100.00
2023-03-17T09:47:24.504Z,100.00
2023-03-17T09:49:52.685Z,100.00
2023-03-17T09:52:25.242Z,100.00
2023-03-17T09:54:52.057Z,100.00
2023-03-17T09:57:26.692Z,100.00
2023-03-17T10:00:07.367Z,100.00
2023-03-17T10:02:35.649Z,100.00
2023-03-17T10:05:31.630Z,100.00
2023-03-17T10:08:31.298Z,100.00
2023-03-17T10:11:03.451Z,100.00
2023-03-17T10:13:46.223Z,100.00
2023-03-17T10:16:17.949Z,100.00
2023-03-17T10:18:59.625Z,100.00
2023-03-17T10:21:29.366Z,100.00
2023-03-17T10:23:57.552Z,99.30
2023-03-17T10:26:31.763Z,98.00
2023-03-17T10:29:04.164Z,97.74
2023-03-17T10:31:35.931Z,99.23
2023-03-17T10:34:16.026Z,100.00
2023-03-17T10:36:45.756Z,100.00
2023-03-17T10:39:14.530Z,100.00
2023-03-17T10:41:48.818Z,100.00
2023-03-17T10:44:46.832Z,100.00
2023-03-17T10:47:24.282Z,100.00
2023-03-17T10:49:52.616Z,100.00
2023-03-17T10:52:23.160Z,100.00
2023-03-17T10:54:51.551Z,100.00
2023-03-17T10:57:18.631Z,100.00
2023-03-17T10:59:53.391Z,100.00
2023-03-17T11:02:30.688Z,100.00
2023-03-17T11:05:03.830Z,100.00
2023-03-17T11:07:38.816Z,100.00
2023-03-17T11:10:19.383Z,100.00
2023-03-17T11:12:49.417Z,100.00
2023-03-17T11:15:17.964Z,100.00
2023-03-17T11:18:03.427Z,100.00
2023-03-17T11:20:47.344Z,100.00
2023-03-17T11:23:30.045Z,100.00
2023-03-17T11:26:33.894Z,100.00
2023-03-17T11:29:38.409Z,100.00
2023-03-17T11:32:26.331Z,100.00
2023-03-17T11:34:59.132Z,100.00
2023-03-17T11:37:37.770Z,100.00
2023-03-17T11:40:40.219Z,100.00
2023-03-17T11:43:41.517Z,100.00
2023-03-17T11:46:19.473Z,100.00
2023-03-17T11:49:08.154Z,100.00
2023-03-17T11:52:03.592Z,100.00
2023-03-17T11:54:42.686Z,100.00
2023-03-17T11:57:38.178Z,100.00
2023-03-17T12:00:33.984Z,99.80
2023-03-17T12:03:19.538Z,98.90
2023-03-17T12:05:48.884Z,99.33
2023-03-17T12:08:30.051Z,100.00
2023-03-17T12:10:58.304Z,100.00
2023-03-17T12:13:29.627Z,100.00
2023-03-17T12:16:12.486Z,100.00
2023-03-17T12:19:03.868Z,100.00
2023-03-17T12:21:50.926Z,100.00
2023-03-17T12:24:22.871Z,100.00
2023-03-17T12:27:03.754Z,100.00
2023-03-17T12:29:54.621Z,100.00
2023-03-17T12:32:24.377Z,100.00
2023-03-17T12:34:57.056Z,99.09
2023-03-17T12:37:25.089Z,96.35
2023-03-17T12:40:10.017Z,97.58
2023-03-17T12:43:02.210Z,95.80
2023-03-17T12:45:44.712Z,94.28
2023-03-17T12:48:36.381Z,93.99
2023-03-17T12:51:41.825Z,94.65
2023-03-17T12:54:31.110Z,94.76
2023-03-17T12:57:05.684Z,95.64
2023-03-17T12:59:34.188Z,95.18
2023-03-17T13:02:15.661Z,97.12
2023-03-17T13:04:58.139Z,99.01
2023-03-17T13:07:38.156Z,100.00
2023-03-17T13:10:20.611Z,100.00
2023-03-17T13:12:47.287Z,100.00
2023-03-17T13:15:38.364Z,99.41
2023-03-17T13:18:17.119Z,98.67
2023-03-17T13:20:56.011Z,97.66
2023-03-17T13:24:06.064Z,97.53
2023-03-17T13:26:53.665Z,97.49
2023-03-17T13:29:33.446Z,95.36
2023-03-17T13:32:25.016Z,94.27
2023-03-17T13:35:01.351Z,92.57
2023-03-17T13:37:33.846Z,90.74
2023-03-17T13:40:20.214Z,86.52
2023-03-17T13:43:09.774Z,83.62
2023-03-17T13:45:37.411Z,84.52
2023-03-17T13:48:29.130Z,81.75
2023-03-17T13:51:08.972Z,80.53
2023-03-17T13:53:41.545Z,78.93
2023-03-17T13:56:16.928Z,77.05
2023-03-17T13:59:00.617Z,76.40
2023-03-17T14:01:28.773Z,77.62
2023-03-17T14:03:56.671Z,77.79
2023-03-17T14:06:28.286Z,77.36
2023-03-17T14:08:57.137Z,77.35
2023-03-17T14:11:35.725Z,76.82
2023-03-17T14:14:15.266Z,76.26
2023-03-17T14:16:51.640Z,75.25
2023-03-17T14:19:41.624Z,75.07
2023-03-17T14:22:24.600Z,74.96
2023-03-17T14:24:53.189Z,75.37
2023-03-17T14:27:20.912Z,75.35
2023-03-17T14:29:47.805Z,75.77
2023-03-17T14:32:16.442Z,75.82
2023-03-17T14:35:04.967Z,76.37
2023-03-17T14:37:31.824Z,76.67
2023-03-17T14:39:59.355Z,77.44
2023-03-17T14:42:28.338Z,77.38
2023-03-17T14:45:08.538Z,77.42
2023-03-17T14:47:40.125Z,77.62
2023-03-17T14:50:24.591Z,77.76
2023-03-17T14:52:51.435Z,77.34
2023-03-17T14:55:19.870Z,76.47
2023-03-17T14:57:52.075Z,76.03
2023-03-17T15:00:31.928Z,76.34
2023-03-17T15:02:59.963Z,75.99
2023-03-17T15:05:28.791Z,76.46
2023-03-17T15:07:55.613Z,76.84
2023-03-17T15:10:31.392Z,76.75
2023-03-17T15:13:02.191Z,76.50
2023-03-17T15:15:36.091Z,75.58
2023-03-17T15:18:21.423Z,75.40
2023-03-17T15:20:48.224Z,75.13
2023-03-17T15:23:19.624Z,75.03
2023-03-17T15:25:50.170Z,74.91
2023-03-17T15:28:18.388Z,74.21
2023-03-17T15:30:48.210Z,74.70
2023-03-17T15:33:31.347Z,75.00
2023-03-17T15:36:00.357Z,75.74
2023-03-17T15:38:27.534Z,75.71
2023-03-17T15:40:54.522Z,75.84
2023-03-17T15:43:24.218Z,75.18
2023-03-17T15:46:00.818Z,76.08
2023-03-17T15:48:28.202Z,76.43
2023-03-17T15:50:55.400Z,75.54
2023-03-17T15:53:22.325Z,75.73
2023-03-17T15:55:49.135Z,74.64
2023-03-17T15:58:16.296Z,73.92
2023-03-17T16:00:43.166Z,74.31
2023-03-17T16:03:30.598Z,73.83
2023-03-17T16:05:58.392Z,74.20
2023-03-17T16:08:25.343Z,74.00
2023-03-17T16:10:54.769Z,74.00
2023-03-17T16:13:22.516Z,74.15
2023-03-17T16:15:59.327Z,74.46
2023-03-17T16:18:33.404Z,75.13
2023-03-17T16:21:00.219Z,75.49
2023-03-17T16:23:28.856Z,75.49
2023-03-17T16:26:11.806Z,76.12
2023-03-17T16:28:41.632Z,76.50
2023-03-17T16:31:34.840Z,76.80
2023-03-17T16:34:01.798Z,77.09
2023-03-17T16:36:28.577Z,77.39
2023-03-17T16:38:55.612Z,77.54
2023-03-17T16:41:24.181Z,77.51
2023-03-17T16:44:01.430Z,77.54
2023-03-17T16:46:29.011Z,77.85
2023-03-17T16:48:56.318Z,78.12
2023-03-17T16:51:25.054Z,78.17
2023-03-17T16:53:52.036Z,78.68
2023-03-17T16:56:20.296Z,78.93
2023-03-17T16:58:47.257Z,78.98
2023-03-17T17:01:16.705Z,79.13
2023-03-17T17:03:43.675Z,79.43
2023-03-17T17:06:11.344Z,78.91
2023-03-17T17:08:38.270Z,78.91
2023-03-17T17:11:05.097Z,79.47
2023-03-17T17:13:32.511Z,79.56
2023-03-17T17:16:00.331Z,79.63
2023-03-17T17:18:27.166Z,79.31
2023-03-17T17:20:54.146Z,79.65
2023-03-17T17:23:23.289Z,79.19
2023-03-17T17:25:50.306Z,78.79
2023-03-17T17:28:18.245Z,78.88
2023-03-17T17:30:48.086Z,78.47
2023-03-17T17:33:16.315Z,78.53
2023-03-17T17:35:43.926Z,78.36
2023-03-17T17:38:26.683Z,78.24
2023-03-17T17:40:54.318Z,78.24
2023-03-17T17:43:21.122Z,78.31
2023-03-17T17:45:50.787Z,78.63
2023-03-17T17:48:18.260Z,79.08
2023-03-17T17:50:45.194Z,78.97
2023-03-17T17:53:12.699Z,79.31
2023-03-17T17:55:43.015Z,78.84
2023-03-17T17:58:13.146Z,79.30
2023-03-17T18:00:39.912Z,79.36
2023-03-17T18:03:06.635Z,79.56
2023-03-17T18:05:33.742Z,80.11
2023-03-17T18:08:02.492Z,79.75
2023-03-17T18:10:30.027Z,80.06
2023-03-17T18:12:57.256Z,79.70
2023-03-17T18:15:24.614Z,79.05
2023-03-17T18:17:51.694Z,79.04
2023-03-17T18:20:20.395Z,78.79
2023-03-17T18:22:47.375Z,78.29
2023-03-17T18:25:15.506Z,78.08
2023-03-17T18:27:42.756Z,78.11
2023-03-17T18:30:11.842Z,77.76
2023-03-17T18:32:39.146Z,77.67
2023-03-17T18:35:09.149Z,77.82
2023-03-17T18:37:36.347Z,78.21
2023-03-17T18:40:14.303Z,78.17
2023-03-17T18:42:42.225Z,78.00
2023-03-17T18:45:10.529Z,78.18
2023-03-17T18:47:39.068Z,78.35
2023-03-17T18:50:07.290Z,78.30
2023-03-17T18:52:34.610Z,78.40
2023-03-17T18:55:01.485Z,77.88
2023-03-17T18:57:28.396Z,77.92
2023-03-17T18:59:55.745Z,78.28
2023-03-17T19:02:22.844Z,77.63
2023-03-17T19:04:49.799Z,77.56
2023-03-17T19:07:16.780Z,77.33
2023-03-17T19:09:43.958Z,77.39
2023-03-17T19:12:10.874Z,77.58
2023-03-17T19:14:38.903Z,77.43
2023-03-17T19:17:06.430Z,77.31
2023-03-17T19:19:34.002Z,77.11
2023-03-17T19:22:01.367Z,77.55
2023-03-17T19:24:28.159Z,77.58
2023-03-17T19:26:54.917Z,77.37
2023-03-17T19:29:21.842Z,77.63
2023-03-17T19:31:48.946Z,77.44
2023-03-17T19:34:15.724Z,77.81
2023-03-17T19:36:43.603Z,78.04
2023-03-17T19:39:11.111Z,78.07
2023-03-17T19:41:37.840Z,78.20
2023-03-17T19:44:06.951Z,78.28
2023-03-17T19:46:36.641Z,78.32
2023-03-17T19:49:04.830Z,78.83
2023-03-17T19:51:32.123Z,78.77
2023-03-17T19:53:58.915Z,78.49
2023-03-17T19:56:25.990Z,78.41
2023-03-17T19:58:52.857Z,78.39
2023-03-17T20:01:20.089Z,78.19
2023-03-17T20:03:46.989Z,78.14
2023-03-17T20:06:13.918Z,78.19
2023-03-17T20:08:41.263Z,78.47
2023-03-17T20:11:08.327Z,78.62
2023-03-17T20:13:35.878Z,78.53
2023-03-17T20:16:02.727Z,78.97
2023-03-17T20:18:29.824Z,78.76
2023-03-17T20:20:57.795Z,78.72
2023-03-17T20:23:25.065Z,79.30
2023-03-17T20:25:52.439Z,79.02
2023-03-17T20:28:20.142Z,79.14
2023-03-17T20:30:48.043Z,79.19
2023-03-17T20:33:14.985Z,78.99
2023-03-17T20:35:43.488Z,78.62
2023-03-17T20:38:10.981Z,78.38
2023-03-17T20:40:37.934Z,78.27
2023-03-17T20:43:04.781Z,77.39
2023-03-17T20:45:31.877Z,77.58
2023-03-17T20:47:58.689Z,77.31
2023-03-17T20:50:25.528Z,77.56
2023-03-17T20:52:52.520Z,77.16
2023-03-17T20:55:20.238Z,77.09
2023-03-17T20:57:47.776Z,77.34
2023-03-17T21:00:17.978Z,77.06
2023-03-17T21:02:45.901Z,77.04
2023-03-17T21:05:18.178Z,77.00
2023-03-17T21:07:44.987Z,76.97
2023-03-17T21:10:12.091Z,76.92
2023-03-17T21:12:39.077Z,77.03
2023-03-17T21:15:06.386Z,76.93
2023-03-17T21:17:33.265Z,77.05
2023-03-17T21:20:01.173Z,76.76
2023-03-17T21:22:27.991Z,76.70
2023-03-17T21:24:55.532Z,76.61
2023-03-17T21:27:22.585Z,76.98
2023-03-17T21:29:49.303Z,76.82
2023-03-17T21:32:16.102Z,76.76
2023-03-17T21:34:42.977Z,76.98
2023-03-17T21:37:09.751Z,77.08
2023-03-17T21:39:36.753Z,77.22
2023-03-17T21:42:04.073Z,77.32
2023-03-17T21:44:32.525Z,77.21
2023-03-17T21:47:02.574Z,77.25
2023-03-17T21:49:29.782Z,77.39
2023-03-17T21:51:56.500Z,77.43
2023-03-17T21:54:23.342Z,77.78
2023-03-17T21:56:50.430Z,77.36
2023-03-17T21:59:18.632Z,77.59
2023-03-17T22:01:45.440Z,77.59
2023-03-17T22:04:12.842Z,77.83
2023-03-17T22:06:40.327Z,77.56
2023-03-17T22:09:07.300Z,77.74
2023-03-17T22:11:34.342Z,77.74
2023-03-17T22:14:02.073Z,78.27
2023-03-17T22:16:29.085Z,77.99
2023-03-17T22:18:55.958Z,77.80
2023-03-17T22:21:23.659Z,77.69
2023-03-17T22:23:50.633Z,77.42
2023-03-17T22:26:18.869Z,77.79
2023-03-17T22:28:46.320Z,78.60
2023-03-17T22:31:20.161Z,79.05
2023-03-17T22:33:48.478Z,79.76
2023-03-17T22:36:15.600Z,80.36
2023-03-17T22:38:42.522Z,80.83
2023-03-17T22:41:11.960Z,81.46
2023-03-17T22:43:40.119Z,81.91
2023-03-17T22:46:07.040Z,81.94
2023-03-17T22:48:36.090Z,82.35
2023-03-17T22:51:14.230Z,82.96
2023-03-17T22:53:41.080Z,83.76
2023-03-17T22:56:08.251Z,84.29
2023-03-17T22:58:35.254Z,84.70
2023-03-17T23:01:02.835Z,85.18
2023-03-17T23:03:29.844Z,85.59
2023-03-17T23:05:58.450Z,85.87
2023-03-17T23:08:26.355Z,86.09
2023-03-17T23:10:53.708Z,86.43
2023-03-17T23:13:20.834Z,87.12
2023-03-17T23:15:47.761Z,87.65
2023-03-17T23:18:14.738Z,88.40
2023-03-17T23:20:42.164Z,88.90
2023-03-17T23:23:09.266Z,89.24
2023-03-17T23:25:36.679Z,89.78
2023-03-17T23:28:03.582Z,90.01
2023-03-17T23:30:31.372Z,90.11
2023-03-17T23:32:58.663Z,90.12
2023-03-17T23:35:25.540Z,90.54
2023-03-17T23:37:52.409Z,90.21
2023-03-17T23:40:19.253Z,90.30
2023-03-17T23:42:48.228Z,90.05
2023-03-17T23:45:18.450Z,89.92
2023-03-17T23:47:46.037Z,89.85
2023-03-17T23:50:13.362Z,89.76
2023-03-17T23:52:40.579Z,89.44
2023-03-17T23:55:08.087Z,89.33
2023-03-17T23:57:37.975Z,89.31
